Time;durP1;ratioP1;P1;durP2;ratioP2;P2;SDS_P1;SDS_P2;PMS_P1;PMS_P2;Temp;Humidity;BMP_temperature;BMP_pressure;BME280_temperature;BME280_humidity;BME280_pressure;Samples;Min_cycle;Max_cycle;Signal;HPM_P1;HPM_P2
2021/11/10 06:13:13;;;;;;;14.80;3.45;;;;;;;1.91;48.20;100800.53;5164106;23;20177;-68
2021/11/10 06:15:39;;;;;;;12.43;3.97;;;;;;;1.91;48.23;100805.91;5013452;28;20088;-69
2021/11/10 06:18:07;;;;;;;11.55;3.58;;;;;;;1.97;48.16;100807.88;5009533;28;20061;-68
2021/11/10 06:20:35;;;;;;;10.95;3.35;;;;;;;1.94;48.16;100799.31;4995480;28;20101;-67
2021/11/10 06:23:01;;;;;;;15.18;3.42;;;;;;;1.98;48.36;100797.91;4993959;28;20171;-67
2021/11/10 06:25:27;;;;;;;8.77;3.05;;;;;;;2.08;48.25;100800.25;4977733;28;20062;-67
2021/11/10 06:27:54;;;;;;;16.90;3.20;;;;;;;2.13;48.13;100804.06;4994094;28;20054;-69
2021/11/10 06:30:23;;;;;;;12.80;3.13;;;;;;;2.25;48.09;100803.53;4989432;28;20082;-67
2021/11/10 06:32:49;;;;;;;12.00;3.13;;;;;;;2.34;48.02;100804.22;4975742;28;20058;-67
2021/11/10 06:35:16;;;;;;;18.75;3.10;;;;;;;2.51;47.81;100813.69;4975464;28;20116;-69
2021/11/10 06:37:43;;;;;;;12.98;2.70;;;;;;;2.66;47.67;100808.22;4982678;28;20132;-69
2021/11/10 06:40:10;;;;;;;17.80;3.15;;;;;;;2.71;47.60;100807.59;4958006;28;20583;-68
2021/11/10 06:42:37;;;;;;;13.63;3.25;;;;;;;2.90;47.18;100806.06;4983647;28;20545;-68
2021/11/10 06:45:05;;;;;;;11.30;2.97;;;;;;;2.92;47.41;100808.56;4972584;28;20423;-67
2021/11/10 06:47:33;;;;;;;9.73;2.50;;;;;;;3.00;46.85;100805.69;4984606;28;20061;-69
2021/11/10 06:49:59;;;;;;;6.18;2.10;;;;;;;3.08;46.72;100804.69;4990153;28;20046;-68
2021/11/10 06:52:25;;;;;;;8.43;2.22;;;;;;;3.16;46.49;100815.34;4982876;28;20447;-68
2021/11/10 06:54:54;;;;;;;6.43;2.10;;;;;;;3.11;46.65;100807.81;4979518;28;20150;-67
2021/11/10 06:57:21;;;;;;;15.10;2.30;;;;;;;3.12;46.71;100804.09;4994749;28;20129;-68
2021/11/10 06:59:47;;;;;;;14.17;2.23;;;;;;;3.12;46.49;100801.38;4985304;28;20062;-68
2021/11/10 07:02:14;;;;;;;14.32;2.50;;;;;;;3.12;46.34;100811.34;4974981;28;20058;-68
2021/11/10 07:04:41;;;;;;;10.75;2.97;;;;;;;3.12;46.23;100792.44;4982130;28;20046;-68
2021/11/10 07:07:07;;;;;;;16.77;2.80;;;;;;;3.20;46.17;100808.50;4974087;28;20141;-68
2021/11/10 07:09:33;;;;;;;29.50;3.40;;;;;;;3.29;46.15;100795.63;4974207;28;20058;-68
2021/11/10 07:11:59;;;;;;;16.88;2.25;;;;;;;3.47;45.90;100800.50;4974907;28;20059;-67
2021/11/10 07:14:26;;;;;;;16.65;2.63;;;;;;;3.59;45.34;100795.31;4974399;28;20467;-67
2021/11/10 07:16:53;;;;;;;9.68;2.95;;;;;;;3.76;45.33;100801.19;4975116;28;20491;-67
2021/11/10 07:19:19;;;;;;;12.30;2.85;;;;;;;3.95;44.97;100788.72;4974668;28;20050;-67
2021/11/10 07:21:47;;;;;;;8.38;2.45;;;;;;;4.06;44.61;100797.28;4974883;28;20054;-68
2021/11/10 07:24:13;;;;;;;9.60;2.38;;;;;;;4.14;44.72;100788.97;4957078;28;20097;-67
2021/11/10 07:26:39;;;;;;;14.18;2.70;;;;;;;4.24;44.66;100802.06;4974617;28;20047;-68
2021/11/10 07:29:05;;;;;;;13.27;2.50;;;;;;;4.28;44.74;100800.59;4974494;28;20447;-69
2021/11/10 07:31:33;;;;;;;17.48;2.72;;;;;;;4.35;44.74;100806.03;4973181;28;20142;-67
2021/11/10 07:34:00;;;;;;;7.38;2.40;;;;;;;4.40;44.53;100806.22;4974350;28;20146;-68
2021/11/10 07:36:27;;;;;;;9.87;2.53;;;;;;;4.47;44.51;100807.06;4972996;28;20047;-68
2021/11/10 07:38:55;;;;;;;7.68;2.60;;;;;;;4.55;44.39;100800.59;4956878;28;20074;-68
2021/11/10 07:41:24;;;;;;;8.65;2.88;;;;;;;4.58;44.39;100802.03;4986407;28;20058;-67
2021/11/10 07:43:53;;;;;;;16.08;3.30;;;;;;;4.71;44.18;100798.50;4993563;28;20046;-68
2021/11/10 07:46:20;;;;;;;14.85;3.08;;;;;;;4.62;44.21;100803.31;4992675;28;20116;-67
2021/11/10 07:48:48;;;;;;;9.35;2.65;;;;;;;4.56;44.55;100804.97;4993475;28;20569;-67
2021/11/10 07:51:15;;;;;;;10.75;2.53;;;;;;;4.55;44.38;100803.31;4992502;28;20042;-67
2021/11/10 07:53:41;;;;;;;9.07;2.23;;;;;;;4.60;44.46;100816.19;4993335;28;20088;-68
2021/11/10 07:56:09;;;;;;;9.60;2.00;;;;;;;4.65;43.96;100811.00;4992942;28;20050;-68
2021/11/10 07:58:36;;;;;;;10.45;2.38;;;;;;;4.56;44.16;100810.41;4986300;28;20499;-68
2021/11/10 08:01:02;;;;;;;8.90;2.20;;;;;;;4.73;43.93;100808.06;4995039;28;20053;-68
2021/11/10 08:03:28;;;;;;;10.57;2.53;;;;;;;4.67;43.93;100807.03;4992245;28;20086;-68
2021/11/10 08:05:56;;;;;;;8.13;2.20;;;;;;;4.78;43.68;100815.56;4989291;28;20046;-67
2021/11/10 08:08:23;;;;;;;8.65;2.33;;;;;;;4.80;43.50;100817.03;4990086;28;20105;-67
2021/11/10 08:10:50;;;;;;;10.65;2.10;;;;;;;4.99;43.12;100817.19;4995286;28;20053;-67
2021/11/10 08:13:18;;;;;;;6.85;2.20;;;;;;;5.15;42.81;100815.91;4992062;28;20465;-66
2021/11/10 08:15:44;;;;;;;8.32;2.17;;;;;;;5.28;42.48;100820.44;4990361;28;20074;-68
2021/11/10 08:18:10;;;;;;;12.27;2.30;;;;;;;5.39;42.54;100822.47;4992772;28;20058;-67
2021/11/10 08:20:36;;;;;;;8.07;2.20;;;;;;;5.46;42.18;100818.91;4988177;28;20055;-68
2021/11/10 08:23:03;;;;;;;9.63;2.25;;;;;;;5.48;42.21;100814.09;5001813;28;20522;-67
2021/11/10 08:25:29;;;;;;;8.48;2.10;;;;;;;5.34;42.27;100821.47;5000305;28;20149;-67
2021/11/10 08:27:56;;;;;;;8.20;2.13;;;;;;;5.09;42.63;100814.88;4998754;28;20057;-67
2021/11/10 08:30:23;;;;;;;6.05;2.00;;;;;;;5.28;42.72;100815.00;4993696;28;20105;-66
2021/11/10 08:32:50;;;;;;;;;;;;;;;5.41;42.11;100816.81;4990338;28;20078;-67
2021/11/10 08:35:16;;;;;;;18.92;2.47;;;;;;;5.61;41.99;100814.03;4992018;28;20024;-66
2021/11/10 08:37:44;;;;;;;8.13;2.33;;;;;;;5.85;42.00;100824.31;4994689;28;20541;-68
2021/11/10 08:40:11;;;;;;;6.20;1.83;;;;;;;5.99;41.76;100815.06;4992550;28;20055;-67
2021/11/10 08:42:38;;;;;;;9.25;2.00;;;;;;;6.28;40.99;100811.94;4992577;28;20054;-73
2021/11/10 08:45:07;;;;;;;13.02;2.30;;;;;;;6.49;40.98;100817.00;4969169;28;20042;-74
2021/11/10 08:47:41;;;;;;;11.13;2.10;;;;;;;6.28;40.98;100809.22;5005596;28;20057;-74
2021/11/10 08:50:08;;;;;;;8.45;1.98;;;;;;;5.89;41.28;100818.25;4988355;28;20046;-74
2021/11/10 08:52:35;;;;;;;8.35;2.65;;;;;;;5.48;42.14;100793.22;4981283;28;20060;-73
2021/11/10 08:55:02;;;;;;;7.87;2.30;;;;;;;5.22;42.35;100808.56;4980591;28;20047;-73
2021/11/10 08:57:28;;;;;;;;;;;;;;;5.16;42.59;100797.75;4987703;28;20352;-72
2021/11/10 08:59:55;;;;;;;6.88;2.50;;;;;;;5.02;42.69;100796.97;4981295;28;20378;-71
2021/11/10 09:02:21;;;;;;;8.67;2.13;;;;;;;5.06;42.56;100806.31;4973731;28;20074;-72
2021/11/10 09:04:48;;;;;;;10.98;2.60;;;;;;;4.80;42.86;100789.09;4988324;28;20051;-73
2021/11/10 09:07:15;;;;;;;8.00;2.55;;;;;;;4.92;43.23;100792.00;4992012;28;20165;-72
2021/11/10 09:09:41;;;;;;;9.13;2.60;;;;;;;5.01;42.58;100792.59;4973702;28;20058;-74
2021/11/10 09:12:09;;;;;;;8.75;2.70;;;;;;;5.28;42.27;100798.75;4963055;28;20051;-71
2021/11/10 09:14:35;;;;;;;11.75;3.10;;;;;;;5.43;41.91;100794.91;4991340;28;20082;-73
2021/11/10 09:17:05;;;;;;;12.65;2.95;;;;;;;5.15;41.91;100802.34;4990405;28;20042;-73
2021/11/10 09:19:31;;;;;;;7.70;2.53;;;;;;;5.14;42.32;100806.06;4990499;28;20481;-72
2021/11/10 09:21:58;;;;;;;8.85;2.78;;;;;;;5.13;42.48;100800.88;4989713;28;20046;-74
2021/11/10 09:24:25;;;;;;;13.45;3.30;;;;;;;5.17;42.52;100802.09;4973190;28;20046;-74
2021/11/10 09:26:51;;;;;;;8.20;3.00;;;;;;;5.47;42.13;100788.84;4985867;28;20089;-74
2021/11/10 09:29:19;;;;;;;10.15;2.97;;;;;;;5.93;41.19;100805.91;4990096;28;20073;-75
2021/11/10 09:31:45;;;;;;;8.38;3.03;;;;;;;6.17;40.84;100803.47;4977967;28;20050;-77
2021/11/10 09:34:13;;;;;;;10.63;2.90;;;;;;;6.10;41.17;100791.81;4965843;28;20035;-75
2021/11/10 09:36:46;;;;;;;12.27;3.30;;;;;;;5.93;41.31;100794.19;4988466;28;20092;-75
2021/11/10 09:39:15;;;;;;;7.80;2.97;;;;;;;5.70;41.77;100790.16;4962027;28;20046;-75
2021/11/10 09:41:42;;;;;;;11.68;3.53;;;;;;;5.82;41.41;100783.00;4974243;28;20046;-73
2021/11/10 09:44:09;;;;;;;10.75;3.28;;;;;;;5.49;41.82;100789.47;4984871;28;20039;-74
2021/11/10 09:46:35;;;;;;;9.10;2.95;;;;;;;5.38;42.06;100785.53;4982186;28;20051;-76
2021/11/10 09:49:01;;;;;;;14.18;2.92;;;;;;;5.42;42.27;100798.69;4985043;28;20042;-74
2021/11/10 09:51:28;;;;;;;8.65;2.60;;;;;;;5.44;42.11;100785.72;4953927;28;20042;-74
2021/11/10 09:53:54;;;;;;;8.43;2.72;;;;;;;5.03;43.01;100795.91;4968766;28;20053;-71
2021/11/10 09:56:24;;;;;;;9.95;2.90;;;;;;;4.85;43.18;100796.56;4972478;28;20403;-71
2021/11/10 09:58:51;;;;;;;7.78;2.78;;;;;;;4.88;43.03;100799.72;4989963;28;20058;-70
2021/11/10 10:01:20;;;;;;;12.05;2.83;;;;;;;5.03;42.84;100790.50;4978745;28;20514;-70
2021/11/10 10:03:46;;;;;;;16.50;2.97;;;;;;;5.00;42.62;100794.44;4957618;28;20047;-71
2021/11/10 10:06:14;;;;;;;14.97;3.20;;;;;;;5.18;42.67;100796.50;4991256;28;20047;-72
2021/11/10 10:08:40;;;;;;;8.73;2.50;;;;;;;5.48;42.23;100803.22;4984220;28;20049;-70
2021/11/10 10:11:06;;;;;;;12.00;2.50;;;;;;;5.41;42.38;100803.25;4966024;28;20145;-68
2021/11/10 10:13:33;;;;;;;9.07;2.88;;;;;;;5.47;42.25;100821.41;4980246;28;20181;-69
2021/11/10 10:15:59;;;;;;;10.80;3.03;;;;;;;5.46;42.07;100781.72;4993538;28;20064;-69
2021/11/10 10:18:28;;;;;;;6.95;2.47;;;;;;;6.16;40.91;100771.91;4980217;28;20043;-68
2021/11/10 10:20:59;;;;;;;10.85;3.25;;;;;;;7.41;38.83;100775.59;4990462;28;20050;-69
2021/11/10 10:23:27;;;;;;;10.45;2.80;;;;;;;8.60;37.29;100778.63;4994583;28;20663;-68
2021/11/10 10:25:55;;;;;;;9.40;3.10;;;;;;;9.18;35.94;100754.22;4993947;28;20097;-69
2021/11/10 10:28:24;;;;;;;11.45;3.25;;;;;;;9.51;35.26;100769.03;4979060;28;20047;-69
2021/11/10 10:30:55;;;;;;;8.75;2.78;;;;;;;10.25;34.73;100761.84;4991648;28;20128;-68
2021/11/10 10:33:23;;;;;;;8.35;2.45;;;;;;;10.14;34.16;100766.31;4984691;28;20062;-68
2021/11/10 10:35:51;;;;;;;10.70;3.00;;;;;;;10.95;33.48;100763.44;4977038;28;20054;-69
2021/11/10 10:38:19;;;;;;;11.50;3.28;;;;;;;10.79;33.69;100755.00;4975083;28;20458;-68
2021/11/10 10:40:46;;;;;;;;;;;;;;;10.72;33.99;100755.19;4993735;28;20133;-69
2021/11/10 10:43:13;;;;;;;;;;;;;;;11.61;32.56;100746.91;4984223;28;19926;-68
2021/11/10 10:45:41;;;;;;;9.10;2.75;;;;;;;11.62;32.50;100765.00;4990628;28;19972;-70
2021/11/10 10:48:13;;;;;;;12.25;3.00;;;;;;;11.46;32.41;100753.06;4978468;28;20078;-69
2021/11/10 10:50:51;;;;;;;13.32;2.80;;;;;;;11.52;32.46;100743.00;4977381;28;20042;-77
2021/11/10 10:53:30;;;;;;;10.57;2.97;;;;;;;10.82;32.63;100748.19;4966329;28;20057;-77
2021/11/10 10:55:56;;;;;;;8.05;2.58;;;;;;;10.30;34.36;100731.88;4990513;28;20046;-76
2021/11/10 10:58:34;;;;;;;10.48;2.83;;;;;;;9.74;34.85;100742.69;4990959;28;20069;-75
2021/11/10 11:01:21;;;;;;;7.90;2.67;;;;;;;9.92;34.38;100744.38;4983439;28;20042;-75
2021/11/10 11:04:03;;;;;;;8.57;2.80;;;;;;;9.87;34.52;100736.91;4988538;28;20042;-76
2021/11/10 11:06:35;;;;;;;11.70;3.20;;;;;;;10.19;34.11;100728.13;4990868;28;20058;-76
2021/11/10 11:09:21;;;;;;;7.57;2.50;;;;;;;10.30;33.92;100736.50;4993237;28;20417;-75
2021/11/10 11:12:35;;;;;;;7.28;2.45;;;;;;;10.18;33.91;100739.34;4965456;28;20112;-73
2021/11/10 11:14:46;;;;;;;8.80;2.30;;;;;;;9.74;34.48;100720.84;4985037;28;20042;-73
2021/11/10 11:17:29;;;;;;;9.82;2.45;;;;;;;9.51;35.23;100715.25;4970732;28;20423;-80
2021/11/10 11:19:59;;;;;;;14.45;2.90;;;;;;;9.75;35.16;100719.75;4970519;28;20054;-71
2021/11/10 11:22:29;;;;;;;12.48;2.47;;;;;;;9.65;34.96;100721.25;4994440;28;20065;-70
2021/11/10 11:24:57;;;;;;;7.88;2.47;;;;;;;8.90;35.58;100710.31;4986944;28;20105;-70
2021/11/10 11:27:29;;;;;;;8.07;2.53;;;;;;;9.03;35.26;100711.91;4992030;28;20050;-69
2021/11/10 11:30:05;;;;;;;8.63;2.25;;;;;;;9.13;35.40;100711.28;4984331;28;20137;-69
2021/11/10 11:32:34;;;;;;;7.82;2.30;;;;;;;9.87;34.38;100706.06;5000634;28;20050;-70
2021/11/10 11:35:05;;;;;;;13.38;2.90;;;;;;;9.39;34.30;100717.25;4985763;28;20113;-69
2021/11/10 11:37:32;;;;;;;7.75;2.33;;;;;;;9.26;34.58;100725.72;4990426;28;20538;-69
2021/11/10 11:40:07;;;;;;;16.85;2.90;;;;;;;9.43;34.46;100690.25;4985674;28;20162;-69
2021/11/10 11:42:33;;;;;;;8.07;2.58;;;;;;;9.89;34.30;100692.97;4978600;28;20061;-69
2021/11/10 11:45:00;;;;;;;11.10;2.67;;;;;;;9.26;34.30;100685.59;4980227;28;20069;-70
2021/11/10 11:47:26;;;;;;;9.85;2.65;;;;;;;9.81;33.72;100694.22;4978902;28;20042;-69
2021/11/10 11:49:54;;;;;;;10.85;2.28;;;;;;;10.13;33.54;100682.69;4986608;28;20120;-67
2021/11/10 11:52:28;;;;;;;11.18;2.53;;;;;;;10.52;33.37;100683.78;4983852;28;20055;-68
2021/11/10 11:54:58;;;;;;;8.50;2.53;;;;;;;10.27;33.43;100693.28;4994337;28;20078;-72
2021/11/10 11:57:25;;;;;;;10.00;2.72;;;;;;;9.92;34.29;100698.78;4990818;28;20580;-71
2021/11/10 11:59:53;;;;;;;;;;;;;;;9.81;34.36;100690.63;4980743;28;20531;-71
2021/11/10 12:02:23;;;;;;;;;;;;;;;9.49;34.75;100686.56;4986731;28;19930;-72
2021/11/10 12:04:49;;;;;;;7.30;2.22;;;;;;;9.45;34.57;100690.88;4987869;28;19973;-73
2021/11/10 12:07:42;;;;;;;14.37;3.37;;;;;;;9.12;34.78;100687.81;4975865;28;20066;-73
2021/11/10 12:10:28;;;;;;;11.80;2.60;;;;;;;9.03;34.45;100690.09;4987941;28;20054;-69
2021/11/10 12:13:08;;;;;;;10.90;2.65;;;;;;;9.10;33.95;100691.84;4987478;28;20050;-68
2021/11/10 12:16:14;;;;;;;9.25;3.08;;;;;;;9.31;33.61;100682.97;4978143;28;20133;-69
2021/11/10 12:18:46;;;;;;;8.38;2.45;;;;;;;9.12;34.00;100700.59;4983537;28;20085;-69
2021/11/10 12:21:12;;;;;;;10.40;2.63;;;;;;;8.88;34.44;100703.41;4974551;28;20414;-69
2021/11/10 12:24:08;;;;;;;9.35;2.63;;;;;;;8.94;34.51;100705.16;4982693;28;20062;-68
2021/11/10 12:26:42;;;;;;;9.02;2.70;;;;;;;8.89;34.54;100707.81;4956018;28;20105;-69
2021/11/10 12:29:08;;;;;;;9.70;2.80;;;;;;;8.37;35.51;100696.59;4988596;28;20049;-68
2021/11/10 12:31:37;;;;;;;14.48;4.20;;;;;;;8.48;35.72;100683.19;4985703;28;20042;-70
2021/11/10 12:34:23;;;;;;;14.20;3.33;;;;;;;8.38;35.53;100684.63;4980757;28;20499;-68
2021/11/10 12:37:04;;;;;;;11.50;2.75;;;;;;;8.42;35.27;100687.72;4988057;28;20050;-70
2021/11/10 12:39:34;;;;;;;12.88;2.80;;;;;;;7.76;35.94;100695.97;4993401;28;20384;-70
2021/11/10 12:42:03;;;;;;;14.48;3.08;;;;;;;7.15;37.14;100683.25;4982700;28;20101;-69
2021/11/10 12:44:31;;;;;;;13.02;3.03;;;;;;;6.87;37.45;100684.69;4995719;28;20045;-70
2021/11/10 12:46:57;;;;;;;11.60;2.40;;;;;;;6.92;37.62;100665.78;4994461;28;20046;-70
2021/11/10 12:49:25;;;;;;;11.27;2.43;;;;;;;6.59;38.32;100674.34;4986583;28;20042;-68
2021/11/10 12:52:16;;;;;;;10.57;3.80;;;;;;;6.70;38.20;100676.31;4981966;28;20499;-68
2021/11/10 12:54:47;;;;;;;12.02;3.30;;;;;;;6.24;38.78;100678.47;4980082;28;20450;-68
2021/11/10 12:57:29;;;;;;;13.75;2.60;;;;;;;6.15;39.07;100677.09;4985829;28;20046;-69
2021/11/10 12:59:59;;;;;;;10.80;2.63;;;;;;;5.94;39.41;100663.69;4972273;28;20047;-68
2021/11/10 13:02:27;;;;;;;7.53;2.72;;;;;;;5.67;39.86;100671.22;4979611;28;20050;-69
2021/11/10 13:04:55;;;;;;;10.05;2.90;;;;;;;5.48;40.19;100656.75;4988485;28;20057;-68
2021/11/10 13:07:32;;;;;;;7.13;2.20;;;;;;;5.05;40.82;100659.09;4987142;28;20052;-68
2021/11/10 13:10:05;;;;;;;11.73;2.92;;;;;;;4.87;41.13;100659.81;4991454;28;20045;-71
2021/11/10 13:12:35;;;;;;;14.38;2.63;;;;;;;4.54;42.00;100658.91;4992149;28;20050;-75
2021/11/10 13:15:03;;;;;;;8.55;2.70;;;;;;;4.46;42.25;100663.72;4997104;28;20042;-73
2021/11/10 13:17:32;;;;;;;7.90;2.20;;;;;;;4.34;42.57;100666.28;4992712;28;20052;-77
2021/11/10 13:20:00;;;;;;;8.63;2.58;;;;;;;3.93;43.37;100671.72;4980598;28;20050;-74
2021/11/10 13:22:36;;;;;;;10.27;2.55;;;;;;;3.68;44.08;100658.84;4981066;28;20097;-72
2021/11/10 13:25:08;;;;;;;10.95;2.35;;;;;;;3.53;44.17;100666.34;4989974;28;20043;-72
2021/11/10 13:27:36;;;;;;;8.30;2.65;;;;;;;3.33;44.42;100658.19;4981567;28;20066;-75
2021/11/10 13:30:06;;;;;;;7.85;2.20;;;;;;;3.16;44.87;100663.13;4994257;28;20110;-75
2021/11/10 13:32:32;;;;;;;11.18;2.70;;;;;;;3.23;44.81;100658.59;4971235;28;20047;-76
2021/11/10 13:35:00;;;;;;;11.77;2.63;;;;;;;3.08;44.95;100647.94;4983887;28;20054;-76
2021/11/10 13:37:39;;;;;;;11.13;2.35;;;;;;;3.07;45.02;100654.38;4984628;28;20041;-76
2021/11/10 13:40:08;;;;;;;20.15;2.47;;;;;;;2.84;45.33;100642.06;4975416;28;20053;-75
2021/11/10 13:42:34;;;;;;;11.65;2.60;;;;;;;2.85;45.52;100654.53;4998978;28;20101;-75
2021/11/10 13:45:08;;;;;;;9.43;2.78;;;;;;;2.80;45.53;100652.44;4992356;28;20065;-74
2021/11/10 13:47:35;;;;;;;19.02;3.00;;;;;;;2.72;45.84;100649.09;4987115;28;20553;-76
2021/11/10 13:50:02;;;;;;;11.63;3.05;;;;;;;2.70;46.15;100649.28;4992006;28;20049;-76
2021/11/10 13:52:29;;;;;;;11.63;3.25;;;;;;;2.78;45.84;100643.72;5007562;28;20145;-75
2021/11/10 13:54:58;;;;;;;11.20;3.42;;;;;;;2.66;46.47;100654.28;5002138;28;20053;-74
2021/11/10 13:57:27;;;;;;;15.43;3.45;;;;;;;2.54;47.04;100637.78;4997726;28;20096;-74
2021/11/10 13:59:58;;;;;;;13.52;3.90;;;;;;;2.33;47.48;100636.03;4994583;28;20050;-77
2021/11/10 14:02:33;;;;;;;11.20;3.38;;;;;;;2.06;48.42;100626.94;4993934;28;20133;-77
2021/11/10 14:05:00;;;;;;;10.63;3.03;;;;;;;1.88;48.93;100651.75;4957367;28;20057;-75
2021/11/10 14:07:27;;;;;;;15.35;3.40;;;;;;;1.98;48.62;100642.28;4966927;28;20101;-75
2021/11/10 14:09:56;;;;;;;19.73;3.92;;;;;;;2.04;48.56;100654.16;4972926;28;20053;-73
2021/11/10 14:12:33;;;;;;;14.45;3.30;;;;;;;1.97;48.74;100645.16;4979782;28;20043;-74
2021/11/10 14:15:02;;;;;;;11.90;3.33;;;;;;;1.86;48.96;100646.53;4992478;28;20086;-74
2021/11/10 14:17:30;;;;;;;10.05;3.20;;;;;;;1.80;49.04;100647.34;4988943;28;20100;-75
2021/11/10 14:19:58;;;;;;;;;;;;;;;1.95;48.97;100647.22;4994503;28;20054;-75
2021/11/10 14:22:25;;;;;;;;;;;;;;;1.67;49.41;100645.34;4979119;28;21041;-79
2021/11/10 14:24:51;;;;;;;12.57;2.80;;;;;;;1.66;49.02;100614.03;4995461;28;20554;-75
2021/11/10 14:27:17;;;;;;;13.38;3.05;;;;;;;1.58;49.70;100630.34;4988890;28;20317;-75
2021/11/10 14:29:45;;;;;;;13.93;2.63;;;;;;;1.51;49.70;100636.50;4976975;28;20046;-78
2021/11/10 14:32:11;;;;;;;12.57;2.80;;;;;;;1.56;49.72;100627.84;4975819;28;20101;-77
2021/11/10 14:34:39;;;;;;;14.70;2.80;;;;;;;1.59;49.68;100626.63;4985989;28;20141;-78
2021/11/10 14:37:19;;;;;;;;;;;;;;;1.51;50.15;100627.59;4981122;28;20431;-78
2021/11/10 14:39:46;;;;;;;9.02;2.90;;;;;;;1.55;49.77;100613.53;4967865;28;19997;-78
2021/11/10 14:42:27;;;;;;;18.20;3.00;;;;;;;1.52;49.99;100618.50;4981518;28;20050;-77
2021/11/10 14:44:55;;;;;;;10.82;2.80;;;;;;;1.49;50.20;100635.88;4991019;28;20041;-76
2021/11/10 14:47:21;;;;;;;10.48;2.88;;;;;;;1.48;50.46;100622.59;4974571;28;20056;-77
2021/11/10 14:49:50;;;;;;;7.30;2.13;;;;;;;1.41;50.64;100622.56;5001478;28;20106;-77
2021/11/10 14:52:18;;;;;;;10.85;2.60;;;;;;;1.34;50.71;100619.78;5002030;28;20046;-73
2021/11/10 14:54:53;;;;;;;8.27;2.40;;;;;;;1.20;51.18;100621.50;4992725;28;20050;-77
2021/11/10 14:57:23;;;;;;;9.57;2.45;;;;;;;1.27;50.95;100627.81;4985784;28;20457;-77
2021/11/10 15:00:00;;;;;;;12.27;2.58;;;;;;;1.37;50.55;100622.09;5004225;28;20049;-79
2021/11/10 15:02:29;;;;;;;10.43;2.45;;;;;;;1.39;50.67;100611.09;4991937;28;20145;-78
2021/11/10 15:04:56;;;;;;;12.50;2.42;;;;;;;1.12;51.31;100600.94;4987191;28;20146;-79
2021/11/10 15:07:23;;;;;;;;;;;;;;;1.26;51.19;100612.69;4976062;28;20552;-76
2021/11/10 15:09:52;;;;;;;8.75;2.10;;;;;;;1.23;50.73;100575.31;4992894;28;19926;-76
2021/11/10 15:12:20;;;;;;;13.85;2.20;;;;;;;1.42;50.48;100589.19;4995025;28;20047;-76
2021/11/10 15:14:48;;;;;;;10.95;2.55;;;;;;;1.10;51.13;100596.78;4986289;28;20133;-76
2021/11/10 15:17:33;;;;;;;8.77;2.50;;;;;;;0.97;51.62;100586.69;4987633;28;20046;-76
2021/11/10 15:20:12;;;;;;;9.27;2.30;;;;;;;0.89;52.01;100598.41;4967947;28;20042;-70
2021/11/10 15:22:41;;;;;;;10.20;2.40;;;;;;;0.89;52.05;100576.88;4990786;28;20137;-75
2021/11/10 15:25:10;;;;;;;9.15;2.60;;;;;;;0.99;51.60;100579.25;4987004;28;20046;-75
2021/11/10 15:27:37;;;;;;;9.57;2.20;;;;;;;1.07;51.44;100580.97;4988779;28;20046;-74
2021/11/10 15:30:05;;;;;;;9.45;2.88;;;;;;;0.90;52.03;100567.75;4982058;28;20074;-74
2021/11/10 15:32:33;;;;;;;6.03;2.15;;;;;;;1.02;51.78;100575.34;4969127;28;20117;-74
2021/11/10 15:34:59;;;;;;;8.27;2.72;;;;;;;1.01;51.94;100589.84;4986857;28;20050;-74
2021/11/10 15:37:25;;;;;;;9.68;2.22;;;;;;;0.93;51.78;100561.16;4983114;28;20043;-74
2021/11/10 15:39:52;;;;;;;8.25;2.50;;;;;;;0.91;52.02;100561.34;4979006;28;20463;-76
2021/11/10 15:42:17;;;;;;;10.93;2.50;;;;;;;0.85;52.03;100573.72;4988877;28;20085;-77
2021/11/10 15:44:47;;;;;;;13.20;2.38;;;;;;;0.75;52.55;100570.53;4985398;28;20050;-75
2021/11/10 15:47:16;;;;;;;9.10;2.30;;;;;;;0.62;52.44;100530.81;4978623;28;20042;-72
2021/11/10 15:49:43;;;;;;;11.10;2.47;;;;;;;0.71;52.51;100536.94;4974413;28;20047;-74
2021/11/10 15:52:09;;;;;;;;;;;;;;;0.79;52.21;100542.19;4983330;28;20042;-73
2021/11/10 15:54:35;;;;;;;7.90;2.55;;;;;;;0.64;52.49;100547.63;4988742;28;20024;-74
2021/11/10 15:57:01;;;;;;;6.60;2.20;;;;;;;0.55;52.93;100540.69;4976249;28;20066;-72
2021/11/10 15:59:28;;;;;;;10.70;2.75;;;;;;;0.61;52.85;100536.41;4979300;28;20470;-74
2021/11/10 16:01:54;;;;;;;9.13;2.83;;;;;;;0.51;52.92;100524.09;4943689;28;20051;-75
2021/11/10 16:04:23;;;;;;;9.98;2.85;;;;;;;0.46;53.19;100521.16;4981114;28;20051;-74
2021/11/10 16:06:52;;;;;;;8.57;2.47;;;;;;;0.38;53.35;100526.63;4969042;28;20137;-76
2021/11/10 16:09:18;;;;;;;7.53;2.13;;;;;;;0.35;53.34;100535.94;4974711;28;20096;-74
2021/11/10 16:11:44;;;;;;;10.90;2.63;;;;;;;0.11;53.98;100497.56;4986539;28;20050;-75
2021/11/10 16:14:10;;;;;;;9.90;2.67;;;;;;;0.22;53.68;100525.00;4974594;28;20510;-73
2021/11/10 16:16:36;;;;;;;12.40;2.75;;;;;;;0.28;53.42;100535.00;4987781;28;20046;-74
2021/11/10 16:19:03;;;;;;;6.93;2.33;;;;;;;0.25;53.36;100522.78;4976558;28;20057;-73
2021/11/10 16:21:30;;;;;;;8.23;2.38;;;;;;;0.20;53.30;100508.22;4976337;28;20519;-74
2021/11/10 16:23:57;;;;;;;10.60;2.30;;;;;;;0.24;53.33;100529.19;4977999;28;20558;-73
2021/11/10 16:26:23;;;;;;;9.50;2.50;;;;;;;0.23;53.34;100507.84;4973930;28;20049;-73
2021/11/10 16:28:58;;;;;;;7.53;2.10;;;;;;;0.27;53.30;100511.81;4989860;28;20050;-74
2021/11/10 16:34:10;;;;;;;11.23;2.35;;;;;;;0.16;53.50;100512.28;4983777;28;20086;-74
2021/11/10 16:36:37;;;;;;;7.43;2.30;;;;;;;0.27;53.16;100509.97;4975720;28;20050;-76
2021/11/10 16:39:05;;;;;;;7.95;2.15;;;;;;;0.24;53.24;100502.28;4956541;28;20078;-74
2021/11/10 16:41:32;;;;;;;9.88;2.30;;;;;;;0.18;53.13;100484.19;5005440;28;20060;-73
2021/11/10 16:43:58;;;;;;;7.07;2.10;;;;;;;0.33;52.78;100491.41;4984676;28;20137;-74
2021/11/10 16:46:24;;;;;;;9.80;2.33;;;;;;;0.25;53.13;100487.81;4971980;28;20050;-74
2021/11/10 16:48:50;;;;;;;7.60;2.30;;;;;;;0.27;53.01;100501.06;4983399;28;20133;-73
2021/11/10 16:51:17;;;;;;;6.78;2.15;;;;;;;0.26;52.77;100477.88;4965428;28;20576;-73
2021/11/10 16:53:43;;;;;;;6.32;2.22;;;;;;;0.23;53.24;100492.53;4985328;28;20097;-73
2021/11/10 16:56:10;;;;;;;7.00;2.53;;;;;;;0.17;52.98;100474.47;5002343;28;20054;-72
2021/11/10 16:58:43;;;;;;;10.32;2.78;;;;;;;0.25;53.00;100476.22;5003583;28;20043;-73
2021/11/10 17:01:11;;;;;;;8.13;2.40;;;;;;;0.25;53.03;100468.13;5008758;28;20043;-74
2021/11/10 17:03:37;;;;;;;;;;;;;;;0.19;53.11;100464.34;5011805;28;20112;-73
2021/11/10 17:06:05;;;;;;;8.15;2.60;;;;;;;0.13;53.22;100479.38;5002071;28;19980;-72
2021/11/10 17:08:32;;;;;;;9.00;2.50;;;;;;;0.10;53.52;100477.06;4996011;28;20124;-73
2021/11/10 17:11:00;;;;;;;10.57;2.70;;;;;;;0.08;53.58;100462.97;4942412;28;20050;-73
2021/11/10 17:13:28;;;;;;;14.95;2.92;;;;;;;0.10;53.22;100474.38;4970918;28;20054;-73
2021/11/10 17:15:55;;;;;;;;;;;;;;;0.15;53.59;100460.38;4975000;28;20050;-73
2021/11/10 17:18:21;;;;;;;9.85;2.95;;;;;;;0.08;53.44;100467.53;4961899;28;19944;-72
2021/11/10 17:20:48;;;;;;;7.47;2.30;;;;;;;-0.01;53.51;100451.50;4985120;28;20098;-73
2021/11/10 17:23:14;;;;;;;8.55;2.35;;;;;;;0.05;53.98;100459.84;4985131;28;20053;-74
2021/11/10 17:25:41;;;;;;;8.90;2.30;;;;;;;-0.01;54.18;100464.09;4972561;28;20054;-74
2021/11/10 17:28:08;;;;;;;9.27;2.08;;;;;;;-0.05;54.13;100454.75;4976519;28;20844;-73
2021/11/10 17:30:36;;;;;;;8.45;2.80;;;;;;;0.05;53.86;100449.06;4980030;28;20042;-72
2021/11/10 17:33:03;;;;;;;7.55;2.20;;;;;;;0.01;53.95;100440.56;4984419;28;20050;-74
2021/11/10 17:35:31;;;;;;;6.70;2.10;;;;;;;-0.09;54.28;100458.84;4976487;28;20133;-73
2021/11/10 17:37:57;;;;;;;;;;;;;;;-0.06;54.42;100466.53;4984493;28;20090;-74
2021/11/10 17:40:23;;;;;;;10.63;2.22;;;;;;;-0.12;54.21;100443.91;4988704;28;19926;-74
2021/11/10 17:42:49;;;;;;;9.65;2.30;;;;;;;-0.17;54.26;100435.59;4977390;28;20062;-74
2021/11/10 17:45:19;;;;;;;9.95;2.17;;;;;;;-0.14;54.28;100435.22;4992808;28;20546;-73
2021/11/10 17:47:47;;;;;;;8.35;2.20;;;;;;;-0.04;53.88;100414.25;4982762;28;20132;-74
2021/11/10 17:50:14;;;;;;;;;;;;;;;-0.01;53.88;100429.16;4967657;28;20051;-74
2021/11/10 17:52:41;;;;;;;10.10;1.98;;;;;;;-0.04;54.03;100430.38;4970528;28;19961;-73
2021/11/10 17:55:10;;;;;;;9.82;2.22;;;;;;;-0.18;54.15;100393.63;4957482;28;20043;-74